Airfield :
LOGIN :

Register | Disclaimer

   EN    FR    IT 

 










Legend :    VFR   Marginal VFR   IFR   Intensive IFR   Very Intensive IFR
Visi :
Ceiling :
>= 8 km
>= 3000ft
5 to 8 km
1000 to 3000 ft
1500m to 5 km
500 to 1000 ft
800 to 1500m
200 to 500 ft
< 800m
< 200 ft
Symbols :   Thunderstorms  Fog  Heavy snow  Heavy precipitations  Wind > 20 kt
SIGMETs :     Misc.  Thunderstorms  Icing  Turbulence  Mountain Waves  Volcanic Ashes






- Airport Elevation : 404 ft
- IATA code : WRO


EPWR - Wroclaw

CURRENT METAR :
  • 291100Z 16004KT 030V200 9999 FEW030 15/05 Q1004

EXPIRED METARs :
  • 291030Z VRB02KT 9999 FEW028 14/06 Q1004
  • 291000Z VRB02KT 9999 SCT028 13/06 Q1004
  • 290930Z VRB03KT 9999 SCT026 12/05 Q1004
  • 290900Z VRB02KT 9999 FEW028 11/05 Q1004
  • 290830Z VRB02KT 9999 FEW018 11/05 Q1004

TAF TAF EPWR
Valid from the 29 at 09:00 until the 30 at 09:00 UTC


290830Z 2909/3009 VRB02KT 9999 SCT030



MET'MAP, your aeronautical weather chart ! - Copyright ORBIFLY December 2007 - Disclaimer

ORBIFLY MET'MAP TEAM :

Programming & Development : Alexandra Zaïnal
Original concept : Baudouin d'Aumeries
Technical & hardware support : Manuel Goepfert
Assistance : Marc-Olivier Méhu




SOURCES & CREDITS :

   NOAA